createdAt,value
2019-03-26T00:01:21.545Z,2.98
2019-03-26T00:04:04.932Z,3.60
2019-03-26T00:06:23.404Z,4.42
2019-03-26T00:08:53.468Z,2.55
2019-03-26T00:11:23.637Z,3.10
2019-03-26T00:13:53.686Z,2.70
2019-03-26T00:16:23.780Z,2.85
2019-03-26T00:18:53.802Z,2.22
2019-03-26T00:21:23.944Z,3.37
2019-03-26T00:23:54.038Z,3.77
2019-03-26T00:26:24.179Z,3.50
2019-03-26T00:28:54.481Z,2.08
2019-03-26T00:31:24.719Z,3.37
2019-03-26T00:33:54.893Z,2.95
2019-03-26T00:36:25.094Z,3.83
2019-03-26T00:38:55.274Z,4.25
2019-03-26T00:41:25.410Z,2.75
2019-03-26T00:43:55.655Z,2.77
2019-03-26T00:46:25.741Z,3.42
2019-03-26T00:48:55.823Z,3.10
2019-03-26T00:51:25.979Z,2.35
2019-03-26T00:53:56.059Z,2.75
2019-03-26T00:56:26.552Z,2.92
2019-03-26T00:58:56.674Z,2.87
2019-03-26T01:01:26.774Z,1.32
2019-03-26T01:03:56.858Z,2.80
2019-03-26T01:06:27.465Z,2.83
2019-03-26T01:08:57.614Z,2.95
2019-03-26T01:11:27.709Z,3.98
2019-03-26T01:13:57.866Z,3.75
2019-03-26T01:16:28.028Z,3.12
2019-03-26T01:18:58.216Z,2.90
2019-03-26T01:21:29.518Z,3.15
2019-03-26T01:23:59.808Z,2.58
2019-03-26T01:26:30.005Z,2.10
2019-03-26T01:29:00.163Z,3.05
2019-03-26T01:31:30.355Z,3.42
2019-03-26T01:34:00.530Z,2.65
2019-03-26T01:36:30.730Z,2.37
2019-03-26T01:39:01.087Z,2.05
2019-03-26T01:41:31.337Z,1.77
2019-03-26T01:44:01.609Z,1.85
2019-03-26T01:46:32.282Z,3.45
2019-03-26T01:49:02.553Z,2.30
2019-03-26T01:51:32.743Z,2.67
2019-03-26T01:54:02.967Z,1.85
2019-03-26T01:56:33.200Z,2.80
2019-03-26T01:59:03.348Z,3.05
2019-03-26T02:01:33.650Z,4.28
2019-03-26T02:04:03.914Z,3.67
2019-03-26T02:06:34.116Z,2.87
2019-03-26T02:09:04.838Z,2.02
2019-03-26T02:11:35.216Z,3.20
2019-03-26T02:14:05.784Z,1.92
2019-03-26T02:16:36.060Z,2.37
2019-03-26T02:19:06.115Z,3.37
2019-03-26T02:21:36.343Z,2.95
2019-03-26T02:24:07.579Z,2.25
2019-03-26T02:26:37.753Z,1.98
2019-03-26T02:29:07.977Z,2.05
2019-03-26T02:31:38.672Z,2.70
2019-03-26T02:34:09.022Z,2.58
2019-03-26T02:36:39.156Z,1.60
2019-03-26T02:39:09.385Z,2.60
2019-03-26T02:41:40.161Z,2.25
2019-03-26T02:44:10.279Z,2.20
2019-03-26T02:46:40.418Z,2.98
2019-03-26T02:49:10.695Z,2.30
2019-03-26T02:51:42.376Z,2.20
2019-03-26T02:54:12.568Z,3.02
2019-03-26T02:56:42.898Z,2.12
2019-03-26T02:59:12.981Z,2.52
2019-03-26T03:01:49.223Z,2.40
2019-03-26T03:04:19.395Z,2.30
2019-03-26T03:06:49.686Z,2.52
2019-03-26T03:09:19.884Z,1.70
2019-03-26T03:11:50.385Z,2.45
2019-03-26T03:14:20.536Z,2.70
2019-03-26T03:16:51.386Z,2.02
2019-03-26T03:19:21.583Z,2.37
2019-03-26T03:21:51.705Z,2.50
2019-03-26T03:24:21.924Z,2.62
2019-03-26T03:26:53.826Z,1.82
2019-03-26T03:29:23.998Z,2.10
2019-03-26T03:31:54.093Z,2.20
2019-03-26T03:34:24.351Z,2.42
2019-03-26T03:36:54.507Z,2.30
2019-03-26T03:39:24.798Z,1.62
2019-03-26T03:41:54.891Z,2.37
2019-03-26T03:44:25.070Z,1.80
2019-03-26T03:46:56.689Z,2.95
2019-03-26T03:49:28.548Z,2.10
2019-03-26T03:52:01.341Z,1.98
2019-03-26T03:54:32.713Z,2.25
2019-03-26T03:57:04.917Z,1.50
2019-03-26T03:59:35.679Z,2.17
2019-03-26T04:02:05.768Z,1.95
2019-03-26T04:04:35.938Z,4.58
2019-03-26T04:07:06.127Z,3.10
2019-03-26T04:09:42.132Z,2.27
2019-03-26T04:12:12.600Z,2.77
2019-03-26T04:14:42.784Z,3.65
2019-03-26T04:17:12.867Z,1.98
2019-03-26T04:19:42.963Z,2.47
2019-03-26T04:22:13.293Z,2.67
2019-03-26T04:24:43.489Z,2.00
2019-03-26T04:27:13.713Z,6.28
2019-03-26T04:29:44.623Z,2.42
2019-03-26T04:32:15.139Z,2.87
2019-03-26T04:34:45.204Z,3.72
2019-03-26T04:37:15.361Z,2.25
2019-03-26T04:39:45.536Z,2.52
2019-03-26T04:42:16.047Z,2.50
2019-03-26T04:44:46.171Z,2.15
2019-03-26T04:47:16.325Z,2.40
2019-03-26T04:49:46.444Z,2.17
2019-03-26T04:52:16.589Z,2.40
2019-03-26T04:54:46.741Z,4.00
2019-03-26T04:57:16.945Z,2.52
2019-03-26T04:59:47.161Z,2.15
2019-03-26T05:02:17.489Z,1.85
2019-03-26T05:04:47.807Z,2.95
2019-03-26T05:07:18.169Z,2.00
2019-03-26T05:09:48.457Z,2.35
2019-03-26T05:12:18.670Z,3.30
2019-03-26T05:14:48.855Z,3.12
2019-03-26T05:17:18.993Z,3.72
2019-03-26T05:19:49.267Z,2.72
2019-03-26T05:22:34.493Z,2.52
2019-03-26T05:25:05.285Z,2.67
2019-03-26T05:27:44.892Z,2.35
2019-03-26T05:30:08.581Z,2.83
2019-03-26T05:32:39.021Z,2.20
2019-03-26T05:35:10.246Z,2.85
2019-03-26T05:37:40.938Z,2.98
2019-03-26T05:40:11.998Z,2.90
2019-03-26T05:42:42.307Z,2.52
2019-03-26T05:45:12.683Z,3.35
2019-03-26T05:47:42.930Z,3.12
2019-03-26T05:50:15.972Z,2.90
2019-03-26T05:52:46.185Z,3.12
2019-03-26T05:55:16.406Z,2.95
2019-03-26T05:57:46.587Z,2.05
2019-03-26T06:00:22.183Z,4.85
2019-03-26T06:02:52.388Z,3.77
2019-03-26T06:05:22.559Z,2.55
2019-03-26T06:07:52.844Z,6.00
2019-03-26T06:10:23.028Z,2.22
2019-03-26T06:12:53.488Z,5.37
2019-03-26T06:15:23.856Z,4.20
2019-03-26T06:17:57.402Z,4.55
2019-03-26T06:20:26.448Z,3.50
2019-03-26T06:22:57.723Z,2.75
2019-03-26T06:25:28.199Z,4.92
2019-03-26T06:27:59.155Z,3.45
2019-03-26T06:30:29.495Z,2.65
2019-03-26T06:32:59.867Z,3.45
2019-03-26T06:35:30.221Z,2.75
2019-03-26T06:38:00.587Z,3.75
2019-03-26T06:40:30.854Z,3.47
2019-03-26T06:43:02.755Z,2.50
2019-03-26T06:45:34.337Z,2.98
2019-03-26T06:48:04.840Z,2.72
2019-03-26T06:50:35.319Z,2.50
2019-03-26T06:53:05.597Z,3.65
2019-03-26T06:55:35.840Z,3.33
2019-03-26T06:58:06.086Z,4.53
2019-03-26T07:00:36.361Z,1.95
2019-03-26T07:03:08.878Z,2.58
2019-03-26T07:05:38.994Z,2.37
2019-03-26T07:08:09.276Z,2.70
2019-03-26T07:10:40.764Z,2.47
2019-03-26T07:13:11.905Z,2.30
2019-03-26T07:15:42.229Z,3.35
2019-03-26T07:18:12.484Z,2.50
2019-03-26T07:20:42.770Z,2.83
2019-03-26T07:23:13.775Z,2.10
2019-03-26T07:25:46.086Z,6.45
2019-03-26T07:28:23.712Z,2.42
2019-03-26T07:30:54.055Z,2.40
2019-03-26T07:33:24.584Z,2.67
2019-03-26T07:35:54.885Z,2.22
2019-03-26T07:38:25.142Z,2.15
2019-03-26T07:40:55.438Z,4.92
2019-03-26T07:43:25.763Z,1.90
2019-03-26T07:45:56.180Z,1.65
2019-03-26T07:48:26.607Z,2.10
2019-03-26T07:50:56.819Z,1.77
2019-03-26T07:53:27.179Z,2.60
2019-03-26T07:55:57.470Z,2.67
2019-03-26T07:58:27.767Z,3.40
2019-03-26T08:00:58.150Z,3.47
2019-03-26T08:03:28.548Z,2.52
2019-03-26T08:05:58.923Z,2.20
2019-03-26T08:08:29.294Z,2.00
2019-03-26T08:11:00.401Z,2.10
2019-03-26T08:13:30.557Z,2.12
2019-03-26T08:16:00.969Z,2.33
2019-03-26T08:18:31.243Z,2.92
2019-03-26T08:21:01.427Z,2.42
2019-03-26T08:23:31.711Z,2.50
2019-03-26T08:26:02.196Z,2.58
2019-03-26T08:28:32.500Z,2.10
2019-03-26T08:31:02.620Z,2.90
2019-03-26T08:33:33.047Z,3.00
2019-03-26T08:36:03.172Z,1.72
2019-03-26T08:38:33.697Z,1.70
2019-03-26T08:41:04.281Z,2.05
2019-03-26T08:43:34.450Z,2.35
2019-03-26T08:46:04.612Z,2.47
2019-03-26T08:48:35.143Z,2.25
2019-03-26T08:51:05.428Z,2.30
2019-03-26T08:53:35.830Z,2.65
2019-03-26T08:56:06.050Z,2.20
2019-03-26T08:58:36.404Z,1.65
2019-03-26T09:01:07.112Z,1.77
2019-03-26T09:03:37.560Z,2.75
2019-03-26T09:06:07.761Z,2.25
2019-03-26T09:08:39.173Z,1.80
2019-03-26T09:11:09.597Z,2.45
2019-03-26T09:13:40.222Z,2.70
2019-03-26T09:16:10.558Z,2.22
2019-03-26T09:18:40.741Z,2.52
2019-03-26T09:21:10.964Z,2.83
2019-03-26T09:23:41.621Z,2.35
2019-03-26T09:26:11.820Z,3.00
2019-03-26T09:28:42.233Z,2.55
2019-03-26T09:31:12.577Z,2.35
2019-03-26T09:33:43.527Z,2.30
2019-03-26T09:36:13.666Z,3.17
2019-03-26T09:38:43.861Z,3.42
2019-03-26T09:41:14.157Z,2.52
2019-03-26T09:43:44.306Z,2.40
2019-03-26T09:46:14.479Z,2.00
2019-03-26T09:48:44.676Z,2.22
2019-03-26T09:51:14.952Z,3.40
2019-03-26T09:53:45.325Z,2.70
2019-03-26T09:56:27.713Z,2.87
2019-03-26T09:58:47.359Z,3.27
2019-03-26T10:01:17.574Z,2.50
2019-03-26T10:03:47.783Z,2.67
2019-03-26T10:06:23.422Z,2.05
2019-03-26T10:08:52.682Z,2.50
2019-03-26T10:11:22.798Z,2.77
2019-03-26T10:13:53.138Z,1.72
2019-03-26T10:16:24.475Z,2.47
2019-03-26T10:18:54.849Z,3.55
2019-03-26T10:21:26.245Z,2.98
2019-03-26T10:23:56.649Z,2.30
2019-03-26T10:26:28.184Z,3.30
2019-03-26T10:28:58.913Z,2.02
2019-03-26T10:31:29.401Z,4.80
2019-03-26T10:33:59.707Z,4.60
2019-03-26T10:36:30.427Z,3.60
2019-03-26T10:39:05.529Z,3.40
2019-03-26T10:41:32.759Z,2.60
2019-03-26T10:44:02.946Z,2.20
2019-03-26T10:46:33.028Z,2.52
2019-03-26T10:49:03.197Z,4.22
2019-03-26T10:51:33.505Z,2.80
2019-03-26T10:54:03.676Z,2.52
2019-03-26T10:56:33.813Z,2.75
2019-03-26T10:59:04.427Z,1.80
2019-03-26T11:01:35.344Z,2.30
2019-03-26T11:04:07.739Z,2.00
2019-03-26T11:06:38.859Z,2.50
2019-03-26T11:09:19.947Z,2.60
2019-03-26T11:11:43.388Z,2.67
2019-03-26T11:14:13.733Z,1.80
2019-03-26T11:16:44.050Z,2.08
2019-03-26T11:19:14.359Z,2.65
2019-03-26T11:21:44.592Z,2.30
2019-03-26T11:24:14.786Z,1.90
2019-03-26T11:26:45.078Z,2.00
2019-03-26T11:29:15.252Z,1.67
2019-03-26T11:31:45.330Z,1.77
2019-03-26T11:34:15.553Z,2.58
2019-03-26T11:36:45.855Z,1.25
2019-03-26T11:39:16.107Z,1.45
2019-03-26T11:41:46.218Z,1.92
2019-03-26T11:44:16.435Z,1.90
2019-03-26T11:46:46.671Z,2.60
2019-03-26T11:49:17.166Z,2.60
2019-03-26T11:51:47.770Z,2.65
2019-03-26T11:54:18.508Z,2.33
2019-03-26T11:56:48.782Z,2.40
2019-03-26T11:59:19.039Z,2.27
2019-03-26T12:01:52.361Z,1.42
2019-03-26T12:04:21.265Z,2.75
2019-03-26T12:06:51.412Z,2.30
2019-03-26T12:09:21.896Z,2.35
2019-03-26T12:11:52.371Z,2.17
2019-03-26T12:14:22.553Z,2.20
2019-03-26T12:16:52.825Z,1.25
2019-03-26T12:19:23.030Z,2.00
2019-03-26T12:21:53.826Z,1.07
2019-03-26T12:24:24.232Z,1.40
2019-03-26T12:26:54.378Z,1.92
2019-03-26T12:29:24.634Z,1.80
2019-03-26T12:31:55.104Z,2.35
2019-03-26T12:34:25.317Z,1.50
2019-03-26T12:36:55.687Z,1.72
2019-03-26T12:39:25.936Z,2.85
2019-03-26T12:41:56.151Z,2.87
2019-03-26T12:44:26.514Z,1.90
2019-03-26T12:46:58.315Z,2.40
2019-03-26T12:49:28.632Z,2.30
2019-03-26T12:51:58.865Z,2.35
2019-03-26T12:54:28.943Z,2.62
2019-03-26T12:56:59.302Z,2.25
2019-03-26T12:59:29.570Z,3.00
2019-03-26T13:01:59.769Z,1.70
2019-03-26T13:04:29.911Z,1.75
2019-03-26T13:07:00.017Z,2.08
2019-03-26T13:09:30.029Z,2.22
2019-03-26T13:12:00.095Z,1.77
2019-03-26T13:14:33.107Z,2.33
2019-03-26T13:17:03.242Z,2.62
2019-03-26T13:19:34.352Z,3.95
2019-03-26T13:22:04.403Z,2.70
2019-03-26T13:24:34.493Z,2.45
2019-03-26T13:27:04.746Z,4.33
2019-03-26T13:29:34.763Z,2.72
2019-03-26T13:32:04.813Z,2.70
2019-03-26T13:34:34.879Z,2.42
2019-03-26T13:37:04.946Z,2.20
2019-03-26T13:39:35.335Z,2.37
2019-03-26T13:42:05.324Z,1.42
2019-03-26T13:44:35.371Z,1.92
2019-03-26T13:47:05.491Z,1.42
2019-03-26T13:49:35.517Z,1.57
2019-03-26T13:52:05.710Z,2.33
2019-03-26T13:54:35.763Z,1.60
2019-03-26T13:57:05.824Z,1.70
2019-03-26T13:59:35.890Z,1.60
2019-03-26T14:02:23.927Z,1.05
2019-03-26T14:04:54.024Z,1.52
2019-03-26T14:07:24.191Z,2.55
2019-03-26T14:09:54.240Z,2.50
2019-03-26T14:12:24.411Z,2.00
2019-03-26T14:14:54.770Z,3.10
2019-03-26T14:17:24.766Z,2.62
2019-03-26T14:19:55.085Z,2.52
2019-03-26T14:22:25.224Z,2.15
2019-03-26T14:24:55.305Z,2.40
2019-03-26T14:27:25.355Z,2.02
2019-03-26T14:29:55.465Z,2.80
2019-03-26T14:32:25.517Z,2.55
2019-03-26T14:34:55.586Z,1.90
2019-03-26T14:37:25.866Z,2.67
2019-03-26T14:39:55.988Z,1.85
2019-03-26T14:42:26.047Z,2.85
2019-03-26T14:44:56.179Z,2.25
2019-03-26T14:47:26.228Z,2.37
2019-03-26T14:49:56.329Z,2.65
2019-03-26T14:52:26.345Z,2.40
2019-03-26T14:55:04.555Z,2.25
2019-03-26T14:57:34.730Z,3.15
2019-03-26T15:00:18.087Z,2.42
2019-03-26T15:02:47.809Z,2.60
2019-03-26T15:05:18.073Z,2.33
2019-03-26T15:07:57.463Z,2.65
2019-03-26T15:10:27.523Z,2.90
2019-03-26T15:13:51.309Z,2.60
2019-03-26T15:16:55.669Z,2.17
2019-03-26T15:19:28.122Z,2.12
2019-03-26T15:21:58.342Z,2.75
2019-03-26T15:24:28.338Z,2.00
2019-03-26T15:26:58.386Z,2.70
2019-03-26T15:29:28.436Z,2.45
2019-03-26T15:31:58.604Z,2.00
2019-03-26T15:34:36.144Z,3.50
2019-03-26T15:37:00.332Z,2.25
2019-03-26T15:39:30.338Z,1.42
2019-03-26T15:42:00.744Z,2.50
2019-03-26T15:44:30.957Z,3.00
2019-03-26T15:47:01.107Z,2.35
2019-03-26T15:49:31.172Z,2.92
2019-03-26T15:52:01.272Z,2.47
2019-03-26T15:54:31.776Z,2.75
2019-03-26T15:57:01.893Z,2.52
2019-03-26T15:59:31.985Z,2.00
2019-03-26T16:02:02.454Z,2.22
2019-03-26T16:04:32.556Z,2.80
2019-03-26T16:07:02.700Z,2.20
2019-03-26T16:09:33.029Z,3.15
2019-03-26T16:12:03.329Z,2.62
2019-03-26T16:14:33.556Z,2.98
2019-03-26T16:17:03.737Z,3.17
2019-03-26T16:19:57.798Z,3.10
2019-03-26T16:22:27.867Z,2.77
2019-03-26T16:24:58.376Z,2.80
2019-03-26T16:27:50.862Z,2.77
2019-03-26T16:30:21.082Z,2.80
2019-03-26T16:32:51.235Z,2.42
2019-03-26T16:35:21.358Z,2.65
2019-03-26T16:37:51.452Z,3.35
2019-03-26T16:40:21.539Z,2.45
2019-03-26T16:42:51.770Z,2.37
2019-03-26T16:45:21.817Z,2.60
2019-03-26T16:47:54.190Z,2.77
2019-03-26T16:50:24.608Z,3.02
2019-03-26T16:52:55.589Z,2.50
2019-03-26T16:55:25.719Z,3.20
2019-03-26T16:57:55.796Z,2.58
2019-03-26T17:00:33.805Z,2.60
2019-03-26T17:03:04.665Z,2.62
2019-03-26T17:05:34.772Z,2.40
2019-03-26T17:08:05.048Z,2.67
2019-03-26T17:10:35.197Z,2.62
2019-03-26T17:13:05.262Z,2.60
2019-03-26T17:15:35.341Z,2.15
2019-03-26T17:18:05.379Z,2.72
2019-03-26T17:20:35.526Z,2.67
2019-03-26T17:23:06.646Z,2.20
2019-03-26T17:25:36.752Z,2.20
2019-03-26T17:28:06.884Z,1.77
2019-03-26T17:30:36.943Z,2.05
2019-03-26T17:33:07.197Z,2.42
2019-03-26T17:35:37.245Z,2.58
2019-03-26T17:38:07.479Z,3.37
2019-03-26T17:40:37.785Z,3.25
2019-03-26T17:43:07.842Z,3.65
2019-03-26T17:45:39.856Z,3.35
2019-03-26T17:48:15.954Z,2.00
2019-03-26T17:50:54.263Z,2.58
2019-03-26T17:53:24.512Z,3.05
2019-03-26T17:55:54.891Z,2.72
2019-03-26T17:58:25.282Z,2.17
2019-03-26T18:00:55.343Z,1.90
2019-03-26T18:03:32.420Z,2.95
2019-03-26T18:06:02.593Z,2.45
2019-03-26T18:08:32.638Z,3.08
2019-03-26T18:11:02.759Z,2.37
2019-03-26T18:13:32.894Z,2.90
2019-03-26T18:16:02.996Z,2.60
2019-03-26T18:18:33.050Z,3.00
2019-03-26T18:21:05.988Z,2.37
2019-03-26T18:23:36.161Z,2.00
2019-03-26T18:26:06.346Z,1.80
2019-03-26T18:28:36.640Z,2.37
2019-03-26T18:31:06.735Z,3.22
2019-03-26T18:33:36.886Z,3.30
2019-03-26T18:36:07.128Z,3.05
2019-03-26T18:38:37.212Z,2.35
2019-03-26T18:41:07.283Z,3.47
2019-03-26T18:43:37.373Z,3.80
2019-03-26T18:46:07.560Z,3.83
2019-03-26T18:48:41.350Z,4.97
2019-03-26T18:51:10.709Z,3.17
2019-03-26T18:53:40.764Z,3.40
2019-03-26T18:56:10.966Z,3.33
2019-03-26T18:58:41.073Z,2.80
2019-03-26T19:01:11.221Z,3.62
2019-03-26T19:03:41.334Z,3.70
2019-03-26T19:06:11.396Z,3.50
2019-03-26T19:08:41.523Z,3.65
2019-03-26T19:11:11.743Z,3.60
2019-03-26T19:13:41.816Z,3.67
2019-03-26T19:16:12.048Z,3.27
2019-03-26T19:18:42.103Z,3.35
2019-03-26T19:21:12.412Z,3.22
2019-03-26T19:23:42.526Z,2.50
2019-03-26T19:26:12.716Z,3.67
2019-03-26T19:28:42.731Z,3.33
2019-03-26T19:31:12.980Z,4.42
2019-03-26T19:33:43.053Z,4.33
2019-03-26T19:36:13.284Z,2.90
2019-03-26T19:38:43.332Z,3.02
2019-03-26T19:41:13.522Z,4.03
2019-03-26T19:43:43.603Z,3.75
2019-03-26T19:46:13.638Z,3.72
2019-03-26T19:48:43.799Z,3.42
2019-03-26T19:51:14.020Z,4.20
2019-03-26T19:53:44.556Z,3.90
2019-03-26T19:56:14.701Z,4.30
2019-03-26T19:58:44.812Z,4.30
2019-03-26T20:01:14.887Z,3.37
2019-03-26T20:03:45.153Z,2.95
2019-03-26T20:06:15.242Z,3.55
2019-03-26T20:08:46.242Z,3.00
2019-03-26T20:11:16.358Z,2.98
2019-03-26T20:13:46.349Z,2.72
2019-03-26T20:16:16.556Z,2.25
2019-03-26T20:18:46.639Z,3.92
2019-03-26T20:21:16.659Z,3.40
2019-03-26T20:23:49.242Z,3.17
2019-03-26T20:26:19.356Z,2.37
2019-03-26T20:28:49.409Z,3.67
2019-03-26T20:31:19.626Z,3.10
2019-03-26T20:33:49.677Z,2.87
2019-03-26T20:36:19.766Z,2.75
2019-03-26T20:38:51.433Z,2.98
2019-03-26T20:41:21.748Z,3.37
2019-03-26T20:43:51.827Z,3.87
2019-03-26T20:46:21.962Z,3.47
2019-03-26T20:48:52.096Z,3.92
2019-03-26T20:51:22.158Z,3.15
2019-03-26T20:53:52.304Z,2.98
2019-03-26T20:56:22.356Z,2.90
2019-03-26T20:58:52.645Z,3.70
2019-03-26T21:01:22.759Z,3.50
2019-03-26T21:03:52.814Z,3.30
2019-03-26T21:06:23.028Z,3.52
2019-03-26T21:08:53.076Z,3.60
2019-03-26T21:11:23.232Z,2.20
2019-03-26T21:13:53.390Z,2.80
2019-03-26T21:16:23.743Z,3.25
2019-03-26T21:18:53.859Z,5.22
2019-03-26T21:21:24.032Z,3.30
2019-03-26T21:23:54.242Z,2.52
2019-03-26T21:26:24.295Z,3.72
2019-03-26T21:28:55.158Z,2.37
2019-03-26T21:31:25.291Z,3.58
2019-03-26T21:33:55.378Z,2.87
2019-03-26T21:36:25.515Z,2.85
2019-03-26T21:38:56.159Z,3.92
2019-03-26T21:41:26.409Z,3.72
2019-03-26T21:44:04.291Z,4.03
2019-03-26T21:46:28.317Z,3.90
2019-03-26T21:48:58.399Z,3.98
2019-03-26T21:51:28.511Z,4.55
2019-03-26T21:53:58.636Z,5.08
2019-03-26T21:56:28.735Z,3.15
2019-03-26T21:58:59.016Z,4.47
2019-03-26T22:01:29.073Z,3.50
2019-03-26T22:03:59.122Z,4.33
2019-03-26T22:06:29.181Z,5.70
2019-03-26T22:08:59.265Z,3.83
2019-03-26T22:11:29.337Z,3.50
2019-03-26T22:13:59.400Z,4.05
2019-03-26T22:16:29.434Z,4.62
2019-03-26T22:18:59.503Z,2.95
2019-03-26T22:21:29.771Z,4.42
2019-03-26T22:23:59.848Z,3.80
2019-03-26T22:26:29.919Z,4.25
2019-03-26T22:29:00.057Z,3.60
2019-03-26T22:31:30.182Z,3.33
2019-03-26T22:34:00.249Z,4.12
2019-03-26T22:36:30.433Z,3.95
2019-03-26T22:39:01.064Z,5.20
2019-03-26T22:41:31.162Z,4.10
2019-03-26T22:44:01.294Z,4.20
2019-03-26T22:46:31.430Z,4.28
2019-03-26T22:49:01.549Z,4.95
2019-03-26T22:51:31.804Z,6.58
2019-03-26T22:54:01.994Z,5.45
2019-03-26T22:56:32.078Z,6.33
2019-03-26T22:59:02.219Z,5.97
2019-03-26T23:01:32.398Z,4.58
2019-03-26T23:04:02.449Z,6.20
2019-03-26T23:06:32.776Z,6.22
2019-03-26T23:09:02.921Z,5.53
2019-03-26T23:11:33.028Z,6.58
2019-03-26T23:14:03.111Z,7.78
2019-03-26T23:16:33.264Z,6.87
2019-03-26T23:19:03.347Z,6.15
2019-03-26T23:21:33.395Z,6.75
2019-03-26T23:24:03.495Z,7.55
2019-03-26T23:26:33.568Z,8.55
2019-03-26T23:29:03.637Z,7.33
2019-03-26T23:31:33.831Z,8.00
2019-03-26T23:34:03.877Z,8.58
2019-03-26T23:36:33.966Z,6.72
2019-03-26T23:39:04.517Z,7.55
2019-03-26T23:41:34.642Z,7.85
2019-03-26T23:44:04.860Z,6.03
2019-03-26T23:46:34.952Z,6.95
2019-03-26T23:49:05.124Z,7.40
2019-03-26T23:51:35.210Z,7.25
2019-03-26T23:54:05.402Z,8.25
2019-03-26T23:56:35.520Z,6.28
2019-03-26T23:59:05.667Z,7.55
